Time;durP1;ratioP1;P1;durP2;ratioP2;P2;SDS_P1;SDS_P2;PMS_P1;PMS_P2;Temp;Humidity;BMP_temperature;BMP_pressure;BME280_temperature;BME280_humidity;BME280_pressure;Samples;Min_cycle;Max_cycle;Signal;HPM_P1;HPM_P2
2021/09/20 00:03:21;;;;;;;0.10;0.10;;;;;;;10.78;91.13;102243.13;10506994;28;20024;-70
2021/09/20 00:08:21;;;;;;;0.10;0.10;;;;;;;10.75;91.79;102246.06;10528910;28;20022;-70
2021/09/20 00:13:22;;;;;;;0.10;0.10;;;;;;;10.72;91.07;102250.81;10537260;28;20101;-70
2021/09/20 00:18:22;;;;;;;0.10;0.10;;;;;;;10.71;91.40;102251.78;10536544;28;20042;-70
2021/09/20 00:23:22;;;;;;;0.10;0.10;;;;;;;10.69;91.76;102245.72;10528893;28;20418;-70
2021/09/20 00:28:23;;;;;;;0.10;0.10;;;;;;;10.68;91.87;102246.72;10536120;28;20012;-70
2021/09/20 00:33:23;;;;;;;0.10;0.10;;;;;;;10.64;92.02;102251.41;10536459;28;20404;-71
2021/09/20 00:38:24;;;;;;;0.10;0.10;;;;;;;10.62;92.54;102245.38;10535958;28;20024;-70
2021/09/20 00:43:24;;;;;;;0.05;0.05;;;;;;;10.60;92.13;102252.66;10536333;28;20020;-73
2021/09/20 00:48:25;;;;;;;0.10;0.10;;;;;;;10.57;92.04;102256.41;10535275;28;20093;-72
2021/09/20 00:53:25;;;;;;;0.10;0.10;;;;;;;10.56;92.15;102259.19;10529845;28;20070;-71
2021/09/20 00:58:25;;;;;;;0.10;0.10;;;;;;;10.53;92.03;102254.97;10534500;28;20278;-71
2021/09/20 01:03:26;;;;;;;0.00;0.00;;;;;;;10.53;92.46;102251.44;10535144;28;20024;-70
2021/09/20 01:08:27;;;;;;;0.00;0.00;;;;;;;10.51;92.16;102250.72;10524060;28;20259;-70
2021/09/20 01:13:27;;;;;;;0.00;0.00;;;;;;;10.51;92.23;102250.72;10506939;28;20240;-70
2021/09/20 01:18:27;;;;;;;0.10;0.10;;;;;;;10.50;92.36;102251.69;10532527;28;20027;-69
2021/09/20 01:23:28;;;;;;;0.10;0.10;;;;;;;10.46;92.64;102247.59;10534064;28;20534;-70
2021/09/20 01:28:28;;;;;;;0.10;0.10;;;;;;;10.45;93.07;102257.41;10533483;28;20016;-70
2021/09/20 01:33:28;;;;;;;0.08;0.08;;;;;;;10.43;93.05;102254.84;10533729;28;20028;-70
2021/09/20 01:38:29;;;;;;;0.10;0.10;;;;;;;10.41;92.95;102258.59;10532840;28;20129;-70
2021/09/20 01:43:30;;;;;;;0.10;0.10;;;;;;;10.41;93.52;102251.47;10527816;28;20274;-70
2021/09/20 01:48:30;;;;;;;0.00;0.00;;;;;;;10.38;93.55;102257.06;10497228;28;20074;-71
2021/09/20 01:53:31;;;;;;;0.10;0.10;;;;;;;10.38;93.10;102253.50;10489785;28;20082;-72
2021/09/20 01:58:31;;;;;;;0.00;0.00;;;;;;;10.37;92.78;102249.16;10530803;28;20076;-71
2021/09/20 02:03:31;;;;;;;0.10;0.10;;;;;;;10.35;92.59;102246.63;10525781;28;20032;-71
2021/09/20 02:08:32;;;;;;;0.10;0.10;;;;;;;10.36;93.01;102244.81;10532265;28;20361;-71
2021/09/20 02:13:33;;;;;;;0.10;0.10;;;;;;;10.35;91.90;102246.63;10532247;28;20015;-71
2021/09/20 02:18:35;;;;;;;0.10;0.10;;;;;;;10.33;92.37;102243.25;10524674;28;20090;-70
2021/09/20 02:23:37;;;;;;;0.10;0.10;;;;;;;10.32;91.00;102251.34;10491045;28;20050;-70
2021/09/20 02:28:38;;;;;;;0.10;0.10;;;;;;;10.34;90.96;102255.59;10495508;28;20028;-70
2021/09/20 02:33:38;;;;;;;0.10;0.10;;;;;;;10.35;91.42;102259.94;10531212;28;20032;-70
2021/09/20 02:38:39;;;;;;;0.10;0.10;;;;;;;10.32;91.22;102260.19;10486942;28;20040;-70
2021/09/20 02:43:40;;;;;;;0.10;0.10;;;;;;;10.31;90.20;102258.50;10488659;28;20401;-70
2021/09/20 02:48:40;;;;;;;0.10;0.10;;;;;;;10.35;89.84;102265.25;10524498;28;20012;-69
2021/09/20 02:53:40;;;;;;;0.10;0.10;;;;;;;10.34;89.96;102263.56;10531679;28;20377;-69
2021/09/20 02:58:41;;;;;;;0.10;0.10;;;;;;;10.36;88.61;102260.81;10520353;28;20477;-70
2021/09/20 03:03:41;;;;;;;0.10;0.10;;;;;;;10.35;89.08;102273.25;10536122;28;20028;-69
2021/09/20 03:08:41;;;;;;;0.10;0.10;;;;;;;10.30;89.73;102263.97;10508048;28;20024;-70
2021/09/20 03:13:42;;;;;;;0.10;0.10;;;;;;;10.25;90.11;102277.59;10497345;28;20028;-70
2021/09/20 03:18:42;;;;;;;0.00;0.00;;;;;;;10.26;89.87;102267.78;10496517;28;20332;-71
2021/09/20 03:23:42;;;;;;;0.10;0.10;;;;;;;10.23;90.60;102284.84;10497241;28;20739;-70
2021/09/20 03:28:42;;;;;;;0.10;0.10;;;;;;;10.18;90.14;102268.38;10525652;28;20020;-70
2021/09/20 03:33:43;;;;;;;0.10;0.10;;;;;;;10.17;89.81;102274.69;10534495;28;20020;-70
2021/09/20 03:38:43;;;;;;;0.00;0.00;;;;;;;10.15;89.92;102273.94;10528440;28;20464;-70
2021/09/20 03:43:44;;;;;;;0.10;0.10;;;;;;;10.16;90.78;102286.31;10536712;28;20468;-70
2021/09/20 03:48:44;;;;;;;0.00;0.00;;;;;;;10.12;90.26;102284.84;10508676;28;20032;-73
2021/09/20 03:53:44;;;;;;;0.10;0.10;;;;;;;10.09;90.33;102288.59;10494409;28;20039;-72
2021/09/20 03:58:45;;;;;;;0.10;0.10;;;;;;;10.07;91.22;102290.56;10495607;28;20039;-73
2021/09/20 04:03:45;;;;;;;0.00;0.00;;;;;;;10.06;91.32;102294.16;10495526;28;20020;-72
2021/09/20 04:08:45;;;;;;;0.10;0.10;;;;;;;10.03;90.97;102291.75;10505919;28;20522;-72
2021/09/20 04:13:46;;;;;;;0.10;0.10;;;;;;;10.03;90.71;102293.56;10535782;28;20020;-72
2021/09/20 04:18:46;;;;;;;0.10;0.10;;;;;;;10.03;90.38;102298.88;10536013;28;20282;-73
2021/09/20 04:23:47;;;;;;;0.03;0.03;;;;;;;10.03;90.22;102293.56;10536483;28;20024;-70
2021/09/20 04:28:47;;;;;;;0.10;0.10;;;;;;;10.10;89.49;102302.78;10535756;28;20118;-70
2021/09/20 04:33:47;;;;;;;0.10;0.10;;;;;;;10.13;89.76;102307.84;10512893;28;20054;-70
2021/09/20 04:38:48;;;;;;;0.10;0.10;;;;;;;10.10;89.87;102311.59;10503861;28;20507;-70
2021/09/20 04:43:48;;;;;;;0.10;0.10;;;;;;;10.08;90.29;102315.34;10534761;28;20257;-70
2021/09/20 04:48:48;;;;;;;0.10;0.10;;;;;;;10.06;89.89;102327.94;10527015;28;20016;-70
2021/09/20 04:53:49;;;;;;;0.10;0.10;;;;;;;10.04;90.26;102336.06;10535176;28;20103;-71
2021/09/20 04:58:49;;;;;;;0.10;0.10;;;;;;;10.04;90.39;102337.88;10534948;28;20081;-70
2021/09/20 05:03:50;;;;;;;0.10;0.10;;;;;;;10.00;90.74;102342.56;10525361;28;20431;-70
2021/09/20 05:08:50;;;;;;;0.10;0.10;;;;;;;9.98;90.89;102341.84;10528434;28;20012;-70
2021/09/20 05:13:50;;;;;;;0.10;0.10;;;;;;;9.99;90.70;102340.88;10527838;28;20358;-70
2021/09/20 05:18:51;;;;;;;0.10;0.10;;;;;;;10.00;90.56;102352.38;10533875;28;20016;-70
2021/09/20 05:23:51;;;;;;;0.10;0.10;;;;;;;10.01;90.57;102356.75;10533806;28;20023;-70
2021/09/20 05:28:53;;;;;;;0.10;0.10;;;;;;;10.01;90.83;102356.75;10519355;22;20437;-65
2021/09/20 05:33:53;;;;;;;0.10;0.10;;;;;;;10.01;91.02;102360.25;10513297;28;20024;-65
2021/09/20 05:38:54;;;;;;;0.10;0.10;;;;;;;10.03;91.10;102365.44;10484194;28;20278;-65
2021/09/20 05:43:54;;;;;;;0.10;0.10;;;;;;;10.04;91.61;102365.34;10449765;28;20040;-65
2021/09/20 05:48:54;;;;;;;0.00;0.00;;;;;;;10.06;91.49;102371.38;10453473;28;20385;-65
2021/09/20 05:53:54;;;;;;;0.10;0.10;;;;;;;10.07;91.30;102369.56;10476174;28;20036;-65
2021/09/20 05:58:55;;;;;;;0.10;0.10;;;;;;;10.09;91.55;102376.44;10487760;28;20525;-65
2021/09/20 06:03:55;;;;;;;0.00;0.00;;;;;;;10.11;91.99;102382.50;10492027;28;20431;-66
2021/09/20 06:08:56;;;;;;;0.10;0.10;;;;;;;10.12;92.18;102370.03;10443591;28;21068;-65
2021/09/20 06:13:57;;;;;;;0.10;0.10;;;;;;;10.18;91.74;102383.75;10451422;28;20357;-65
2021/09/20 06:18:58;;;;;;;0.00;0.00;;;;;;;10.23;91.36;102375.41;10486132;28;20034;-65
2021/09/20 06:23:58;;;;;;;0.10;0.10;;;;;;;10.27;91.45;102387.56;10446658;28;20066;-65
2021/09/20 06:28:58;;;;;;;0.00;0.00;;;;;;;10.32;91.63;102395.16;10481340;28;20154;-65
2021/09/20 06:33:59;;;;;;;0.10;0.10;;;;;;;10.39;91.42;102394.59;10481196;28;20035;-65
2021/09/20 06:38:59;;;;;;;0.10;0.10;;;;;;;10.46;91.42;102380.78;10456453;28;20037;-65
2021/09/20 06:44:00;;;;;;;0.10;0.10;;;;;;;10.55;91.33;102380.91;10453464;28;20024;-65
2021/09/20 06:49:01;;;;;;;0.10;0.10;;;;;;;10.65;90.53;102381.88;10492598;28;20107;-65
2021/09/20 06:54:02;;;;;;;0.10;0.10;;;;;;;10.75;89.57;102384.66;10475723;28;20028;-65
2021/09/20 06:59:03;;;;;;;0.10;0.10;;;;;;;10.82;91.03;102393.00;10456301;28;20033;-66
2021/09/20 07:04:03;;;;;;;0.00;0.00;;;;;;;10.88;90.59;102403.19;10467169;28;20028;-64
2021/09/20 07:09:03;;;;;;;0.10;0.10;;;;;;;10.98;89.64;102403.28;10474099;28;20071;-66
2021/09/20 07:14:04;;;;;;;0.10;0.10;;;;;;;11.04;88.30;102392.13;10455890;28;20020;-66
2021/09/20 07:19:04;;;;;;;0.10;0.10;;;;;;;11.15;88.02;102400.13;10469455;28;20028;-66
2021/09/20 07:24:05;;;;;;;0.10;0.10;;;;;;;11.24;87.16;102415.38;10478167;28;20020;-65
2021/09/20 07:29:06;;;;;;;0.10;0.10;;;;;;;11.35;87.35;102409.16;10483999;28;20496;-65
2021/09/20 07:34:06;;;;;;;0.10;0.10;;;;;;;11.46;86.54;102411.81;10496289;28;20615;-66
2021/09/20 07:39:07;;;;;;;0.10;0.10;;;;;;;11.55;86.25;102415.53;10495588;28;20028;-66
2021/09/20 07:44:07;;;;;;;0.10;0.10;;;;;;;11.64;85.02;102422.78;10496228;28;20484;-66
2021/09/20 07:49:07;;;;;;;0.10;0.10;;;;;;;11.75;85.44;102424.53;10494212;28;20070;-66
2021/09/20 07:54:08;;;;;;;0.10;0.10;;;;;;;11.83;84.65;102422.06;10470203;28;20021;-65
2021/09/20 07:59:08;;;;;;;0.00;0.00;;;;;;;11.96;83.85;102422.78;10453642;28;20375;-65
2021/09/20 08:04:09;;;;;;;0.10;0.10;;;;;;;12.08;82.98;102430.75;10465747;28;20023;-65
2021/09/20 08:09:10;;;;;;;0.10;0.10;;;;;;;12.17;83.05;102429.94;10509918;28;20778;-65
2021/09/20 08:14:10;;;;;;;0.10;0.10;;;;;;;12.27;81.26;102435.34;10495095;28;20016;-65
2021/09/20 08:19:11;;;;;;;0.10;0.10;;;;;;;12.35;81.58;102440.88;10482913;28;20025;-66
2021/09/20 08:24:11;;;;;;;0.10;0.10;;;;;;;12.39;81.38;102439.63;10459996;28;20543;-65
2021/09/20 08:29:12;;;;;;;0.10;0.10;;;;;;;12.48;80.78;102440.66;10477097;28;20154;-65
2021/09/20 08:34:12;;;;;;;0.10;0.10;;;;;;;12.55;81.22;102442.69;10472425;28;20490;-65
2021/09/20 08:39:13;;;;;;;0.10;0.10;;;;;;;12.68;79.96;102448.69;10452092;28;20021;-66
2021/09/20 08:44:13;;;;;;;0.10;0.10;;;;;;;12.78;79.58;102442.53;10452195;28;20035;-66
2021/09/20 08:49:15;;;;;;;0.10;0.10;;;;;;;12.81;79.81;102450.28;10449514;28;20029;-65
2021/09/20 08:54:17;;;;;;;0.10;0.10;;;;;;;12.79;79.47;102458.41;10451014;28;20420;-65
2021/09/20 08:59:18;;;;;;;0.10;0.10;;;;;;;12.89;80.41;102456.66;10455831;28;20067;-65
2021/09/20 09:04:30;;;;;;;0.00;0.00;;;;;;;13.00;78.77;102469.09;10465038;28;20025;-65
2021/09/20 09:09:36;;;;;;;0.05;0.05;;;;;;;13.15;78.82;102472.25;10448750;28;20023;-65
2021/09/20 09:14:43;;;;;;;0.10;0.10;;;;;;;13.31;78.64;102477.09;10451138;28;20029;-66
2021/09/20 09:19:47;;;;;;;0.10;0.10;;;;;;;13.41;77.59;102480.66;10450217;28;20071;-65
2021/09/20 09:25:03;;;;;;;0.10;0.10;;;;;;;13.56;75.80;102484.63;10470309;28;20028;-65
2021/09/20 09:30:06;;;;;;;0.10;0.10;;;;;;;13.61;75.38;102483.34;10472508;28;20060;-66
2021/09/20 09:45:26;;;;;;;0.10;0.10;;;;;;;13.64;76.18;102493.78;10451592;28;20462;-65
2021/09/20 09:50:27;;;;;;;0.00;0.00;;;;;;;13.62;74.75;102498.44;10436648;28;20008;-64
2021/09/20 09:55:31;;;;;;;0.10;0.10;;;;;;;13.64;73.71;102496.44;10427259;22;20461;-65
2021/09/20 10:00:32;;;;;;;0.10;0.10;;;;;;;13.69;72.07;102499.56;10389693;28;20571;-64
2021/09/20 10:05:33;;;;;;;0.10;0.10;;;;;;;13.56;72.98;102500.69;10340822;28;20053;-66
2021/09/20 10:10:33;;;;;;;0.10;0.10;;;;;;;13.55;72.27;102490.09;10349036;28;20499;-65
2021/09/20 10:15:35;;;;;;;0.10;0.10;;;;;;;13.63;72.04;102494.78;10347205;28;20434;-65
2021/09/20 10:20:35;;;;;;;0.10;0.10;;;;;;;13.70;71.43;102487.88;10335350;28;20045;-65
2021/09/20 10:25:36;;;;;;;0.10;0.10;;;;;;;13.67;70.51;102488.16;10365368;28;20053;-65
2021/09/20 10:30:36;;;;;;;0.10;0.10;;;;;;;13.61;67.39;102486.03;10359956;28;20026;-70
2021/09/20 10:35:42;;;;;;;0.10;0.10;;;;;;;13.66;71.58;102487.31;10363642;28;20029;-70
2021/09/20 10:40:42;;;;;;;0.10;0.10;;;;;;;13.66;70.81;102483.78;10326533;28;20479;-73
2021/09/20 10:45:46;;;;;;;0.10;0.10;;;;;;;13.72;71.77;102483.22;10313806;28;20077;-72
2021/09/20 10:50:52;;;;;;;0.10;0.10;;;;;;;13.75;70.26;102470.41;10325163;28;20018;-70
2021/09/20 10:56:01;;;;;;;0.10;0.10;;;;;;;13.94;71.73;102477.59;10351116;28;20038;-69
2021/09/20 11:01:11;;;;;;;0.10;0.10;;;;;;;14.02;69.98;102480.44;10365305;28;20513;-71
2021/09/20 11:06:23;;;;;;;0.10;0.10;;;;;;;14.03;67.28;102475.91;10365672;28;20025;-70
2021/09/20 11:11:42;;;;;;;0.10;0.10;;;;;;;14.04;67.29;102478.44;10341669;28;20048;-69
2021/09/20 11:16:53;;;;;;;0.10;0.10;;;;;;;14.09;66.68;102475.34;10354733;28;20368;-70
2021/09/20 11:22:05;;;;;;;0.00;0.00;;;;;;;14.11;64.68;102480.53;10365905;28;20372;-69
2021/09/20 11:27:28;;;;;;;0.10;0.10;;;;;;;14.22;66.80;102485.75;10372448;28;20382;-71
2021/09/20 11:32:28;;;;;;;0.10;0.10;;;;;;;14.26;66.34;102479.97;10370426;28;20561;-70
2021/09/20 11:37:33;;;;;;;0.00;0.00;;;;;;;14.30;63.38;102479.69;10372521;28;20109;-71
2021/09/20 11:42:36;;;;;;;0.10;0.10;;;;;;;14.40;63.54;102486.75;10341738;28;20026;-70
2021/09/20 11:47:42;;;;;;;0.10;0.10;;;;;;;14.43;61.60;102485.59;10331680;28;20037;-71
2021/09/20 11:52:45;;;;;;;0.10;0.10;;;;;;;14.43;58.94;102483.78;10331848;28;20034;-69
2021/09/20 11:57:49;;;;;;;0.10;0.10;;;;;;;14.48;60.82;102488.69;10331285;28;20034;-71
2021/09/20 12:02:53;;;;;;;0.10;0.10;;;;;;;14.56;58.60;102488.84;10340827;28;20388;-70
2021/09/20 12:07:58;;;;;;;0.08;0.08;;;;;;;14.67;59.38;102495.88;10371222;28;20378;-70
2021/09/20 12:13:01;;;;;;;0.10;0.10;;;;;;;14.90;60.76;102491.00;10341876;28;20118;-70
2021/09/20 12:18:03;;;;;;;0.10;0.10;;;;;;;14.93;60.66;102494.22;10329977;28;20054;-71
2021/09/20 12:23:12;;;;;;;0.10;0.10;;;;;;;14.74;60.93;102496.97;10330172;28;20026;-70
2021/09/20 12:28:18;;;;;;;0.10;0.10;;;;;;;14.61;62.62;102500.00;10327933;28;20058;-70
2021/09/20 12:33:19;;;;;;;0.10;0.10;;;;;;;14.45;66.73;102497.84;10332901;28;20022;-70
2021/09/20 12:38:27;;;;;;;0.10;0.10;;;;;;;14.35;64.49;102497.03;10361788;28;20022;-70
2021/09/20 12:43:33;;;;;;;0.10;0.10;;;;;;;14.37;63.23;102495.06;10369904;28;20548;-69
2021/09/20 12:48:36;;;;;;;0.10;0.10;;;;;;;14.33;60.33;102485.59;10336045;28;20022;-69
2021/09/20 12:53:45;;;;;;;0.10;0.10;;;;;;;14.38;61.82;102494.06;10369384;28;20131;-70
2021/09/20 12:58:47;;;;;;;0.10;0.10;;;;;;;14.40;61.83;102496.63;10368496;28;20040;-69
2021/09/20 13:03:55;;;;;;;0.10;0.10;;;;;;;14.43;63.11;102499.84;10349784;28;20410;-68
2021/09/20 13:09:06;;;;;;;0.10;0.10;;;;;;;14.36;61.39;102490.69;10356293;28;20021;-70
2021/09/20 13:14:22;;;;;;;0.10;0.10;;;;;;;14.29;62.56;102497.63;10349835;28;20057;-69
2021/09/20 13:19:22;;;;;;;0.10;0.10;;;;;;;14.31;64.52;102506.38;10361578;28;20030;-69
2021/09/20 13:24:35;;;;;;;0.10;0.10;;;;;;;14.32;63.28;102508.03;10327973;28;20035;-69
2021/09/20 13:29:36;;;;;;;0.10;0.10;;;;;;;14.38;65.50;102512.00;10327389;28;20026;-70
2021/09/20 13:34:36;;;;;;;0.10;0.10;;;;;;;14.41;65.01;102501.81;10326871;28;20100;-71
2021/09/20 13:39:36;;;;;;;0.10;0.10;;;;;;;14.44;66.30;102504.22;10327182;28;20550;-70
2021/09/20 13:44:39;;;;;;;0.10;0.10;;;;;;;14.57;66.84;102506.59;10326860;28;20029;-70
2021/09/20 13:49:42;;;;;;;0.00;0.00;;;;;;;14.56;64.51;102509.44;10329791;28;20105;-70
2021/09/20 13:54:42;;;;;;;0.10;0.10;;;;;;;14.58;64.55;102508.31;10325523;28;20438;-70
2021/09/20 13:59:42;;;;;;;0.10;0.10;;;;;;;14.58;65.03;102502.13;10333130;28;20018;-69
2021/09/20 14:04:43;;;;;;;0.10;0.10;;;;;;;14.58;66.06;102500.28;10366395;28;20049;-69
2021/09/20 14:09:43;;;;;;;0.10;0.10;;;;;;;14.53;64.21;102497.19;10366747;28;20022;-70
2021/09/20 14:14:43;;;;;;;0.10;0.10;;;;;;;14.52;64.97;102508.06;10366492;28;20057;-71
2021/09/20 14:19:44;;;;;;;0.10;0.10;;;;;;;14.40;63.46;102499.31;10356307;28;20026;-70
2021/09/20 14:24:44;;;;;;;0.08;0.08;;;;;;;14.41;63.01;102501.81;10329751;28;20030;-69
2021/09/20 14:29:45;;;;;;;0.10;0.10;;;;;;;14.38;63.61;102502.13;10337040;28;20034;-69
2021/09/20 14:34:46;;;;;;;0.10;0.10;;;;;;;14.36;62.75;102513.97;10354751;28;20065;-70
2021/09/20 14:39:47;;;;;;;0.10;0.10;;;;;;;14.27;63.45;102521.88;10324711;28;20053;-71
2021/09/20 14:44:47;;;;;;;0.10;0.10;;;;;;;14.18;61.86;102521.88;10326815;28;20081;-70
2021/09/20 14:49:50;;;;;;;0.00;0.00;;;;;;;14.14;64.81;102528.53;10326955;28;20391;-70
2021/09/20 14:54:50;;;;;;;0.10;0.10;;;;;;;14.14;65.00;102529.38;10326754;28;20157;-70
2021/09/20 14:59:50;;;;;;;0.10;0.10;;;;;;;14.15;63.74;102535.56;10339616;28;20034;-71
2021/09/20 15:04:51;;;;;;;0.10;0.10;;;;;;;14.14;62.63;102531.19;10333884;28;20033;-71
2021/09/20 15:09:51;;;;;;;0.00;0.00;;;;;;;14.14;62.90;102537.41;10330398;28;20031;-70
2021/09/20 15:14:52;;;;;;;0.10;0.10;;;;;;;14.14;62.58;102544.59;10334556;28;20026;-71
2021/09/20 15:19:53;;;;;;;0.10;0.10;;;;;;;14.08;63.59;102542.47;10333842;28;20081;-72
2021/09/20 15:24:53;;;;;;;0.10;0.10;;;;;;;14.05;64.95;102543.59;10333998;28;20058;-71
2021/09/20 15:29:53;;;;;;;0.10;0.10;;;;;;;14.01;64.35;102543.03;10333731;28;20026;-70
2021/09/20 15:34:53;;;;;;;0.10;0.10;;;;;;;13.99;64.83;102546.81;10334309;28;20406;-70
2021/09/20 15:39:54;;;;;;;0.10;0.10;;;;;;;13.98;66.13;102545.97;10333354;28;20407;-70
2021/09/20 15:44:55;;;;;;;0.10;0.10;;;;;;;13.93;66.92;102540.22;10333824;28;20565;-71
2021/09/20 15:49:55;;;;;;;0.10;0.10;;;;;;;13.92;67.67;102545.69;10337844;28;20479;-71
2021/09/20 15:54:55;;;;;;;0.10;0.10;;;;;;;13.84;68.03;102549.06;10365888;22;20033;-67
2021/09/20 15:59:57;;;;;;;0.10;0.10;;;;;;;13.75;67.80;102550.75;10448383;28;20117;-67
2021/09/20 16:04:57;;;;;;;0.10;0.10;;;;;;;13.65;66.42;102554.41;10449483;28;20024;-67
2021/09/20 16:09:57;;;;;;;0.10;0.10;;;;;;;13.59;68.73;102551.28;10436536;28;20062;-66
2021/09/20 16:14:58;;;;;;;0.10;0.10;;;;;;;13.55;71.23;102557.88;10455132;28;20025;-67
2021/09/20 16:19:59;;;;;;;0.10;0.10;;;;;;;13.49;71.41;102546.88;10453353;28;20509;-67
2021/09/20 16:25:00;;;;;;;0.10;0.10;;;;;;;13.44;71.84;102557.13;10454691;28;20102;-67
2021/09/20 16:30:00;;;;;;;0.10;0.10;;;;;;;13.41;70.39;102563.63;10453760;28;20021;-67
2021/09/20 16:35:00;;;;;;;0.10;0.10;;;;;;;13.40;71.17;102571.78;10451377;28;20110;-67
2021/09/20 16:40:02;;;;;;;0.00;0.00;;;;;;;13.34;71.84;102568.66;10453504;28;20029;-67
2021/09/20 16:45:05;;;;;;;0.10;0.10;;;;;;;13.27;72.54;102572.03;10453858;28;20028;-67
2021/09/20 16:50:07;;;;;;;0.10;0.10;;;;;;;13.21;74.01;102580.56;10453510;28;20542;-67
2021/09/20 16:55:09;;;;;;;0.10;0.10;;;;;;;13.13;74.96;102590.09;10453041;28;20037;-67
2021/09/20 17:00:10;;;;;;;0.10;0.10;;;;;;;13.06;75.63;102588.06;10435290;28;20071;-67
2021/09/20 17:05:11;;;;;;;0.10;0.10;;;;;;;13.00;75.58;102596.63;10420020;28;20104;-67
2021/09/20 17:10:12;;;;;;;0.10;0.10;;;;;;;12.93;76.21;102600.81;10411447;28;20510;-67
2021/09/20 17:15:16;;;;;;;0.10;0.10;;;;;;;12.85;76.43;102609.47;10401908;28;20109;-67
2021/09/20 17:20:19;;;;;;;0.08;0.08;;;;;;;12.78;75.87;102605.63;10368222;28;20026;-66
2021/09/20 17:25:21;;;;;;;0.10;0.10;;;;;;;12.72;76.10;102601.66;10368580;28;20053;-67
2021/09/20 17:30:23;;;;;;;0.10;0.10;;;;;;;12.65;76.24;102617.38;10353612;28;20018;-66
2021/09/20 17:35:24;;;;;;;0.10;0.10;;;;;;;12.57;77.24;102617.16;10371815;28;20475;-67
2021/09/20 17:40:27;;;;;;;0.10;0.10;;;;;;;12.50;77.61;102618.63;10366421;28;20025;-66
2021/09/20 17:45:27;;;;;;;0.10;0.10;;;;;;;12.43;78.00;102618.31;10368233;28;20109;-66
2021/09/20 17:50:28;;;;;;;0.10;0.10;;;;;;;12.36;78.77;102622.47;10368337;28;20117;-66
2021/09/20 17:55:28;;;;;;;0.10;0.10;;;;;;;12.30;78.25;102630.13;10406582;28;20036;-66
2021/09/20 18:00:28;;;;;;;0.10;0.10;;;;;;;12.22;78.58;102634.31;10454779;28;20039;-67
2021/09/20 18:05:29;;;;;;;0.10;0.10;;;;;;;12.15;78.48;102642.94;10484802;28;20031;-66
2021/09/20 18:10:30;;;;;;;0.10;0.10;;;;;;;12.09;78.13;102649.63;10481553;28;20052;-66
2021/09/20 18:15:32;;;;;;;0.10;0.10;;;;;;;12.04;77.00;102662.50;10487994;28;20064;-66
2021/09/20 18:20:32;;;;;;;0.10;0.10;;;;;;;11.99;76.62;102656.69;10483495;28;20031;-66
2021/09/20 18:25:32;;;;;;;0.10;0.10;;;;;;;11.94;75.83;102658.88;10489125;28;20107;-66
2021/09/20 18:30:33;;;;;;;0.10;0.10;;;;;;;11.88;74.98;102656.69;10491838;28;20318;-66
2021/09/20 18:35:33;;;;;;;0.10;0.10;;;;;;;11.81;75.61;102652.78;10493299;28;20305;-66
2021/09/20 18:40:34;;;;;;;0.10;0.10;;;;;;;11.70;75.57;102651.84;10503514;28;20021;-66
2021/09/20 18:45:35;;;;;;;0.10;0.10;;;;;;;11.54;75.64;102656.66;10496170;28;20040;-68
2021/09/20 18:50:35;;;;;;;0.10;0.10;;;;;;;11.35;76.42;102665.28;10465269;28;20107;-68
2021/09/20 18:55:36;;;;;;;0.10;0.10;;;;;;;11.14;76.36;102670.47;10454689;28;20029;-67
2021/09/20 19:00:37;;;;;;;0.10;0.10;;;;;;;10.94;76.49;102668.44;10488746;28;20056;-68
2021/09/20 19:05:37;;;;;;;0.10;0.10;;;;;;;10.73;76.80;102682.44;10502817;28;20012;-67
2021/09/20 19:10:37;;;;;;;0.10;0.10;;;;;;;10.53;78.31;102685.72;10470647;28;20020;-67
2021/09/20 19:15:37;;;;;;;0.10;0.10;;;;;;;10.30;79.60;102677.63;10501127;28;20025;-67
2021/09/20 19:20:40;;;;;;;0.10;0.10;;;;;;;10.06;81.00;102690.00;10489192;28;20474;-68
2021/09/20 19:25:40;;;;;;;0.10;0.10;;;;;;;9.86;82.34;102697.63;10457496;28;20632;-69
2021/09/20 19:30:41;;;;;;;0.10;0.10;;;;;;;9.68;83.77;102702.41;10462878;28;20020;-71
2021/09/20 19:35:43;;;;;;;0.10;0.10;;;;;;;9.45;85.29;102706.69;10462470;28;20120;-71
2021/09/20 19:40:44;;;;;;;0.00;0.00;;;;;;;9.26;85.34;102706.25;10444345;28;20021;-68
2021/09/20 19:45:44;;;;;;;0.10;0.10;;;;;;;9.03;86.55;102703.34;10456380;28;20033;-68
2021/09/20 19:50:44;;;;;;;0.00;0.00;;;;;;;8.91;87.67;102709.47;10454658;28;20021;-68
2021/09/20 19:55:45;;;;;;;0.10;0.10;;;;;;;8.82;89.00;102705.63;10437919;28;20029;-68
2021/09/20 20:00:45;;;;;;;0.10;0.10;;;;;;;8.68;87.93;102712.81;10456143;28;20025;-68
2021/09/20 20:05:46;;;;;;;0.10;0.10;;;;;;;8.56;88.49;102717.97;10386490;28;20026;-66
2021/09/20 20:10:48;;;;;;;0.00;0.00;;;;;;;8.43;89.09;102722.34;10372359;28;20080;-67
2021/09/20 20:15:49;;;;;;;0.00;0.00;;;;;;;8.29;88.49;102727.66;10371791;28;20022;-67
2021/09/20 20:20:55;;;;;;;0.10;0.10;;;;;;;8.15;89.04;102724.09;10373810;28;20029;-68
2021/09/20 20:25:56;;;;;;;0.03;0.03;;;;;;;8.05;89.32;102730.06;10375705;28;20014;-69
2021/09/20 20:30:56;;;;;;;0.00;0.00;;;;;;;7.98;90.84;102726.09;10376973;28;20014;-70
2021/09/20 20:35:57;;;;;;;0.00;0.00;;;;;;;7.88;89.05;102739.06;10371432;28;20030;-70
2021/09/20 20:40:58;;;;;;;0.00;0.00;;;;;;;7.83;89.14;102731.41;10381219;28;20087;-68
2021/09/20 20:45:58;;;;;;;0.00;0.00;;;;;;;7.83;89.99;102738.53;10377751;28;20061;-68
2021/09/20 20:50:59;;;;;;;0.00;0.00;;;;;;;7.84;88.79;102730.47;10397716;28;20115;-68
2021/09/20 20:56:01;;;;;;;0.00;0.00;;;;;;;7.93;87.32;102739.66;10394057;28;20101;-68
2021/09/20 21:01:04;;;;;;;0.00;0.00;;;;;;;7.95;87.90;102743.06;10438296;28;20064;-67
2021/09/20 21:06:05;;;;;;;0.00;0.00;;;;;;;7.84;87.71;102753.50;10433185;28;20024;-69
2021/09/20 21:11:06;;;;;;;0.00;0.00;;;;;;;7.68;88.00;102762.41;10448010;28;20017;-69
2021/09/20 21:16:06;;;;;;;0.00;0.00;;;;;;;7.54;88.36;102765.03;10410585;28;20036;-68
2021/09/20 21:21:07;;;;;;;0.00;0.00;;;;;;;7.41;88.44;102767.53;10420295;28;20289;-67
2021/09/20 21:26:07;;;;;;;0.00;0.00;;;;;;;7.36;89.55;102771.41;10423421;28;20013;-67
2021/09/20 21:31:09;;;;;;;0.00;0.00;;;;;;;7.33;89.43;102782.19;10431716;28;20021;-68
2021/09/20 21:36:10;;;;;;;0.00;0.00;;;;;;;7.31;90.14;102779.63;10436207;28;20032;-68
2021/09/20 21:41:10;;;;;;;0.05;0.05;;;;;;;7.33;90.69;102784.84;10416831;28;20025;-67
2021/09/20 21:46:11;;;;;;;0.00;0.00;;;;;;;7.34;91.03;102786.56;10425803;28;20096;-70
2021/09/20 21:51:11;;;;;;;0.00;0.00;;;;;;;7.36;90.86;102782.88;10424760;28;20032;-69
2021/09/20 21:56:12;;;;;;;0.00;0.00;;;;;;;7.36;91.39;102784.66;10452872;28;20373;-69
2021/09/20 22:01:12;;;;;;;0.00;0.00;;;;;;;7.40;91.10;102788.84;10524298;22;20048;-65
2021/09/20 22:06:14;;;;;;;0.00;0.00;;;;;;;7.46;91.23;102799.09;10373239;28;20068;-66
2021/09/20 22:11:14;;;;;;;0.00;0.00;;;;;;;7.50;92.48;102797.94;10390737;28;20033;-66
2021/09/20 22:16:14;;;;;;;0.00;0.00;;;;;;;7.61;91.72;102798.16;10389109;28;20025;-66
2021/09/20 22:21:15;;;;;;;0.00;0.00;;;;;;;7.52;91.71;102784.63;10393340;28;20029;-67
2021/09/20 22:26:15;;;;;;;0.05;0.05;;;;;;;7.39;90.53;102774.75;10385054;28;20104;-67
2021/09/20 22:31:16;;;;;;;0.00;0.00;;;;;;;7.26;91.35;102769.28;10392349;28;20034;-67
2021/09/20 22:36:16;;;;;;;0.00;0.00;;;;;;;7.14;91.89;102801.81;10374426;28;20017;-65
2021/09/20 22:41:17;;;;;;;0.00;0.00;;;;;;;7.06;92.00;102801.41;10389549;28;20033;-66
2021/09/20 22:46:18;;;;;;;0.05;0.05;;;;;;;6.91;93.12;102794.34;10380284;28;20152;-66
2021/09/20 22:51:20;;;;;;;0.00;0.00;;;;;;;6.80;93.78;102819.63;10371127;28;20025;-66
2021/09/20 22:56:20;;;;;;;0.00;0.00;;;;;;;6.68;94.15;102815.00;10386701;28;20029;-66
2021/09/20 23:01:20;;;;;;;0.00;0.00;;;;;;;6.71;94.84;102820.13;10375449;28;20026;-66
2021/09/20 23:06:20;;;;;;;0.00;0.00;;;;;;;6.76;94.41;102819.91;10382794;28;20419;-66
2021/09/20 23:11:21;;;;;;;0.00;0.00;;;;;;;6.76;94.70;102815.44;10377863;28;20040;-67
2021/09/20 23:16:21;;;;;;;0.00;0.00;;;;;;;6.82;94.40;102810.75;10390896;28;20021;-66
2021/09/20 23:21:21;;;;;;;0.00;0.00;;;;;;;6.90;95.38;102813.84;10386875;28;20108;-66